<?xml version="1.0" encoding="UTF-8" standalone="no" ?>
<gpx xmlns="http://www.topografix.com/GPX/1/1" xmlns:xsi="http://www.w3.org/2001/XMLSchema-instance" xsi:schemaLocation="http://www.topografix.com/GPX/1/1 http://www.topografix.com/GPX/1/1/gpx.xsd" version="1.1" creator="VisuGPX - https://www.visugpx.com">
  <metadata>
    <name>Gerbépal- Boslimpré- Col d'Osseux- roche des Chiens</name>
  </metadata>
  <trk>
    <name><![CDATA[Gerbepal-Boslimpré-Osseux-roche des chiens-Gerbepal]]></name>
    <trkseg>
      <trkpt lat="48.1496" lon="6.92213">
        <ele>634</ele>
        <time>2017-02-24T09:26:06Z</time>
      </trkpt>
      <trkpt lat="48.14983" lon="6.92262">
        <ele>634</ele>
        <time>2017-02-24T09:26:11Z</time>
      </trkpt>
      <trkpt lat="48.14981" lon="6.92301">
        <ele>636</ele>
        <time>2019-01-24T11:14:44Z</time>
      </trkpt>
      <trkpt lat="48.15003" lon="6.92375">
        <ele>637</ele>
        <time>2017-02-24T09:26:16Z</time>
      </trkpt>
      <trkpt lat="48.14995" lon="6.92541">
        <ele>637</ele>
        <time>2017-02-24T09:26:21Z</time>
      </trkpt>
      <trkpt lat="48.14984" lon="6.92599">
        <ele>639</ele>
        <time>2017-02-24T09:26:26Z</time>
      </trkpt>
      <trkpt lat="48.14954" lon="6.92682">
        <ele>642</ele>
        <time>2017-02-24T09:26:31Z</time>
      </trkpt>
      <trkpt lat="48.14943" lon="6.9273">
        <ele>643</ele>
        <time>2019-01-24T11:15:09Z</time>
      </trkpt>
      <trkpt lat="48.14938" lon="6.92773">
        <ele>643</ele>
        <time>2017-02-24T09:26:36Z</time>
      </trkpt>
      <trkpt lat="48.14991" lon="6.92856">
        <ele>644</ele>
        <time>2017-02-24T09:26:41Z</time>
      </trkpt>
      <trkpt lat="48.14998" lon="6.92907">
        <ele>646</ele>
        <time>2017-02-24T09:26:46Z</time>
      </trkpt>
      <trkpt lat="48.14971" lon="6.92975">
        <ele>650</ele>
        <time>2017-02-24T09:26:51Z</time>
      </trkpt>
      <trkpt lat="48.14984" lon="6.9303">
        <ele>655</ele>
        <time>2017-02-24T09:26:56Z</time>
      </trkpt>
      <trkpt lat="48.14985" lon="6.93055">
        <ele>657</ele>
        <time>2017-02-24T09:27:01Z</time>
      </trkpt>
      <trkpt lat="48.14979" lon="6.93088">
        <ele>659</ele>
        <time>2017-02-24T09:27:06Z</time>
      </trkpt>
      <trkpt lat="48.15" lon="6.93233">
        <ele>674</ele>
        <time>2017-02-24T09:27:11Z</time>
      </trkpt>
      <trkpt lat="48.15095" lon="6.93383">
        <ele>705</ele>
        <time>2017-02-24T09:27:16Z</time>
      </trkpt>
      <trkpt lat="48.15109" lon="6.93448">
        <ele>717</ele>
        <time>2017-02-24T09:27:21Z</time>
      </trkpt>
      <trkpt lat="48.15101" lon="6.93482">
        <ele>719</ele>
        <time>2017-02-24T09:27:26Z</time>
      </trkpt>
      <trkpt lat="48.15126" lon="6.93572">
        <ele>736</ele>
        <time>2017-02-24T09:27:31Z</time>
      </trkpt>
      <trkpt lat="48.15175" lon="6.93515">
        <ele>740</ele>
        <time>2017-02-24T09:27:36Z</time>
      </trkpt>
      <trkpt lat="48.15215" lon="6.93444">
        <ele>733</ele>
        <time>2017-02-24T09:27:41Z</time>
      </trkpt>
      <trkpt lat="48.15301" lon="6.93379">
        <ele>731</ele>
        <time>2017-02-24T09:27:46Z</time>
      </trkpt>
      <trkpt lat="48.15384" lon="6.93315">
        <ele>731</ele>
        <time>2017-02-24T09:27:51Z</time>
      </trkpt>
      <trkpt lat="48.15477" lon="6.93262">
        <ele>736</ele>
        <time>2017-02-24T09:27:56Z</time>
      </trkpt>
      <trkpt lat="48.15576" lon="6.93242">
        <ele>739</ele>
        <time>2019-01-24T11:16:39Z</time>
      </trkpt>
      <trkpt lat="48.15684" lon="6.93243">
        <ele>737</ele>
        <time>2017-02-24T09:28:01Z</time>
      </trkpt>
      <trkpt lat="48.15769" lon="6.93229">
        <ele>732</ele>
        <time>2017-02-24T09:28:06Z</time>
      </trkpt>
      <trkpt lat="48.15851" lon="6.93195">
        <ele>731</ele>
        <time>2017-02-24T09:28:11Z</time>
      </trkpt>
      <trkpt lat="48.16007" lon="6.93094">
        <ele>715</ele>
        <time>2017-02-24T09:28:16Z</time>
      </trkpt>
      <trkpt lat="48.16118" lon="6.93103">
        <ele>707</ele>
        <time>2017-02-24T09:28:21Z</time>
      </trkpt>
      <trkpt lat="48.16109" lon="6.93186">
        <ele>709</ele>
        <time>2019-01-24T11:17:09Z</time>
      </trkpt>
      <trkpt lat="48.16085" lon="6.93265">
        <ele>716</ele>
        <time>2019-01-24T11:17:14Z</time>
      </trkpt>
      <trkpt lat="48.16068" lon="6.93349">
        <ele>723</ele>
        <time>2017-02-24T09:28:26Z</time>
      </trkpt>
      <trkpt lat="48.1606" lon="6.93442">
        <ele>726</ele>
        <time>2017-02-24T09:28:31Z</time>
      </trkpt>
      <trkpt lat="48.16039" lon="6.93548">
        <ele>727</ele>
        <time>2019-01-24T11:17:29Z</time>
      </trkpt>
      <trkpt lat="48.15988" lon="6.93637">
        <ele>728</ele>
        <time>2017-02-24T09:28:36Z</time>
      </trkpt>
      <trkpt lat="48.15917" lon="6.93769">
        <ele>733</ele>
        <time>2017-02-24T09:28:41Z</time>
      </trkpt>
      <trkpt lat="48.15814" lon="6.9388">
        <ele>739</ele>
        <time>2017-02-24T09:28:46Z</time>
      </trkpt>
      <trkpt lat="48.15761" lon="6.93958">
        <ele>750</ele>
        <time>2019-01-24T11:17:49Z</time>
      </trkpt>
      <trkpt lat="48.15711" lon="6.94041">
        <ele>760</ele>
        <time>2017-02-24T09:28:51Z</time>
      </trkpt>
      <trkpt lat="48.15689" lon="6.9424">
        <ele>763</ele>
        <time>2019-01-24T11:17:59Z</time>
      </trkpt>
      <trkpt lat="48.1567" lon="6.94402">
        <ele>755</ele>
        <time>2017-02-24T09:28:56Z</time>
      </trkpt>
      <trkpt lat="48.15653" lon="6.94453">
        <ele>754</ele>
        <time>2019-01-24T11:18:09Z</time>
      </trkpt>
      <trkpt lat="48.15621" lon="6.94489">
        <ele>763</ele>
        <time>2017-02-24T09:29:01Z</time>
      </trkpt>
      <trkpt lat="48.15604" lon="6.94526">
        <ele>766</ele>
        <time>2019-01-24T11:18:19Z</time>
      </trkpt>
      <trkpt lat="48.15604" lon="6.94563">
        <ele>763</ele>
        <time>2017-02-24T09:29:06Z</time>
      </trkpt>
      <trkpt lat="48.15616" lon="6.9461">
        <ele>758</ele>
        <time>2019-01-24T11:18:29Z</time>
      </trkpt>
      <trkpt lat="48.15613" lon="6.94662">
        <ele>762</ele>
        <time>2017-02-24T09:29:11Z</time>
      </trkpt>
      <trkpt lat="48.15613" lon="6.94757">
        <ele>767</ele>
        <time>2017-02-24T09:29:16Z</time>
      </trkpt>
      <trkpt lat="48.15627" lon="6.94777">
        <ele>765</ele>
        <time>2019-01-24T11:18:44Z</time>
      </trkpt>
      <trkpt lat="48.15658" lon="6.94777">
        <ele>756</ele>
        <time>2019-01-24T11:18:49Z</time>
      </trkpt>
      <trkpt lat="48.15689" lon="6.94783">
        <ele>754</ele>
        <time>2017-02-24T09:29:21Z</time>
      </trkpt>
      <trkpt lat="48.15771" lon="6.94842">
        <ele>753</ele>
        <time>2017-02-24T09:29:26Z</time>
      </trkpt>
      <trkpt lat="48.1582" lon="6.94957">
        <ele>751</ele>
        <time>2017-02-24T09:29:31Z</time>
      </trkpt>
      <trkpt lat="48.15839" lon="6.95055">
        <ele>754</ele>
        <time>2017-02-24T09:29:36Z</time>
      </trkpt>
      <trkpt lat="48.15866" lon="6.95039">
        <ele>752</ele>
        <time>2017-02-24T09:29:41Z</time>
      </trkpt>
      <trkpt lat="48.15928" lon="6.9507">
        <ele>752</ele>
        <time>2017-02-24T09:29:46Z</time>
      </trkpt>
      <trkpt lat="48.15965" lon="6.95115">
        <ele>755</ele>
        <time>2017-02-24T09:29:51Z</time>
      </trkpt>
      <trkpt lat="48.15982" lon="6.95169">
        <ele>760</ele>
        <time>2017-02-24T09:29:56Z</time>
      </trkpt>
      <trkpt lat="48.15988" lon="6.95218">
        <ele>762</ele>
        <time>2017-02-24T09:30:01Z</time>
      </trkpt>
      <trkpt lat="48.15974" lon="6.95263">
        <ele>765</ele>
        <time>2017-02-24T09:30:06Z</time>
      </trkpt>
      <trkpt lat="48.15941" lon="6.95287">
        <ele>771</ele>
        <time>2017-02-24T09:30:11Z</time>
      </trkpt>
      <trkpt lat="48.15916" lon="6.95308">
        <ele>774</ele>
        <time>2017-02-24T09:30:16Z</time>
      </trkpt>
      <trkpt lat="48.15927" lon="6.95501">
        <ele>777</ele>
        <time>2017-02-24T09:30:21Z</time>
      </trkpt>
      <trkpt lat="48.1593" lon="6.95588">
        <ele>781</ele>
        <time>2019-01-24T11:19:59Z</time>
      </trkpt>
      <trkpt lat="48.15948" lon="6.95675">
        <ele>781</ele>
        <time>2017-02-24T09:30:26Z</time>
      </trkpt>
      <trkpt lat="48.15997" lon="6.95819">
        <ele>781</ele>
        <time>2017-02-24T09:30:31Z</time>
      </trkpt>
      <trkpt lat="48.16016" lon="6.95891">
        <ele>782</ele>
        <time>2019-01-24T11:20:14Z</time>
      </trkpt>
      <trkpt lat="48.16029" lon="6.95959">
        <ele>782</ele>
        <time>2017-02-24T09:30:36Z</time>
      </trkpt>
      <trkpt lat="48.16043" lon="6.96018">
        <ele>779</ele>
        <time>2017-02-24T09:30:41Z</time>
      </trkpt>
      <trkpt lat="48.16106" lon="6.96081">
        <ele>776</ele>
        <time>2019-01-24T11:20:29Z</time>
      </trkpt>
      <trkpt lat="48.16154" lon="6.96138">
        <ele>775</ele>
        <time>2017-02-24T09:30:46Z</time>
      </trkpt>
      <trkpt lat="48.16171" lon="6.96192">
        <ele>774</ele>
        <time>2019-01-24T11:20:39Z</time>
      </trkpt>
      <trkpt lat="48.16172" lon="6.96223">
        <ele>773</ele>
        <time>2019-01-24T11:20:44Z</time>
      </trkpt>
      <trkpt lat="48.16164" lon="6.96252">
        <ele>770</ele>
        <time>2017-02-24T09:30:51Z</time>
      </trkpt>
      <trkpt lat="48.16194" lon="6.96284">
        <ele>774</ele>
        <time>2017-02-24T09:30:56Z</time>
      </trkpt>
      <trkpt lat="48.16221" lon="6.96321">
        <ele>778</ele>
        <time>2017-02-24T09:31:01Z</time>
      </trkpt>
      <trkpt lat="48.16259" lon="6.96357">
        <ele>782</ele>
        <time>2019-01-24T11:21:04Z</time>
      </trkpt>
      <trkpt lat="48.16307" lon="6.96395">
        <ele>783</ele>
        <time>2017-02-24T09:31:06Z</time>
      </trkpt>
      <trkpt lat="48.16355" lon="6.96431">
        <ele>784</ele>
        <time>2017-02-24T09:31:11Z</time>
      </trkpt>
      <trkpt lat="48.16381" lon="6.96472">
        <ele>782</ele>
        <time>2017-02-24T09:31:16Z</time>
      </trkpt>
      <trkpt lat="48.16421" lon="6.96508">
        <ele>778</ele>
        <time>2017-02-24T09:31:21Z</time>
      </trkpt>
      <trkpt lat="48.16513" lon="6.96535">
        <ele>767</ele>
        <time>2017-02-24T09:31:26Z</time>
      </trkpt>
      <trkpt lat="48.16569" lon="6.9658">
        <ele>757</ele>
        <time>2017-02-24T09:31:31Z</time>
      </trkpt>
      <trkpt lat="48.16538" lon="6.96663">
        <ele>752</ele>
        <time>2017-02-24T09:31:36Z</time>
      </trkpt>
      <trkpt lat="48.16529" lon="6.96915">
        <ele>735</ele>
        <time>2017-02-24T09:31:41Z</time>
      </trkpt>
      <trkpt lat="48.16531" lon="6.96873">
        <ele>738</ele>
        <time>2019-01-24T11:21:49Z</time>
      </trkpt>
      <trkpt lat="48.16533" lon="6.96834">
        <ele>741</ele>
        <time>2019-01-24T11:21:54Z</time>
      </trkpt>
      <trkpt lat="48.16557" lon="6.96834">
        <ele>740</ele>
        <time>2019-01-24T11:21:59Z</time>
      </trkpt>
      <trkpt lat="48.16574" lon="6.96845">
        <ele>739</ele>
        <time>2019-01-24T11:22:04Z</time>
      </trkpt>
      <trkpt lat="48.16601" lon="6.96849">
        <ele>733</ele>
        <time>2019-01-24T11:22:09Z</time>
      </trkpt>
      <trkpt lat="48.16627" lon="6.96856">
        <ele>726</ele>
        <time>2019-01-24T11:22:14Z</time>
      </trkpt>
      <trkpt lat="48.16683" lon="6.96842">
        <ele>713</ele>
        <time>2017-02-24T09:31:46Z</time>
      </trkpt>
      <trkpt lat="48.16723" lon="6.96824">
        <ele>701</ele>
        <time>2017-02-24T09:31:51Z</time>
      </trkpt>
      <trkpt lat="48.16764" lon="6.96793">
        <ele>688</ele>
        <time>2017-02-24T09:31:56Z</time>
      </trkpt>
      <trkpt lat="48.16805" lon="6.96765">
        <ele>674</ele>
        <time>2017-02-24T09:32:01Z</time>
      </trkpt>
      <trkpt lat="48.16838" lon="6.96785">
        <ele>664</ele>
        <time>2017-02-24T09:32:06Z</time>
      </trkpt>
      <trkpt lat="48.16813" lon="6.96841">
        <ele>674</ele>
        <time>2017-02-24T09:32:11Z</time>
      </trkpt>
      <trkpt lat="48.16794" lon="6.96904">
        <ele>684</ele>
        <time>2017-02-24T09:32:16Z</time>
      </trkpt>
      <trkpt lat="48.16781" lon="6.96955">
        <ele>686</ele>
        <time>2017-02-24T09:32:21Z</time>
      </trkpt>
      <trkpt lat="48.16766" lon="6.97">
        <ele>687</ele>
        <time>2017-02-24T09:32:26Z</time>
      </trkpt>
      <trkpt lat="48.16736" lon="6.97054">
        <ele>690</ele>
        <time>2017-02-24T09:32:31Z</time>
      </trkpt>
      <trkpt lat="48.16702" lon="6.97074">
        <ele>692</ele>
        <time>2017-02-24T09:32:36Z</time>
      </trkpt>
      <trkpt lat="48.16661" lon="6.97078">
        <ele>697</ele>
        <time>2017-02-24T09:32:41Z</time>
      </trkpt>
      <trkpt lat="48.16551" lon="6.971">
        <ele>704</ele>
        <time>2017-02-24T09:32:46Z</time>
      </trkpt>
      <trkpt lat="48.16487" lon="6.97113">
        <ele>703</ele>
        <time>2017-02-24T09:32:51Z</time>
      </trkpt>
      <trkpt lat="48.16455" lon="6.97123">
        <ele>698</ele>
        <time>2017-02-24T09:32:56Z</time>
      </trkpt>
      <trkpt lat="48.16427" lon="6.97122">
        <ele>694</ele>
        <time>2017-02-24T09:33:01Z</time>
      </trkpt>
      <trkpt lat="48.16407" lon="6.97116">
        <ele>692</ele>
        <time>2017-02-24T09:33:06Z</time>
      </trkpt>
      <trkpt lat="48.16393" lon="6.97116">
        <ele>690</ele>
        <time>2017-02-24T09:33:11Z</time>
      </trkpt>
      <trkpt lat="48.16368" lon="6.97149">
        <ele>681</ele>
        <time>2017-02-24T09:33:16Z</time>
      </trkpt>
      <trkpt lat="48.1636" lon="6.97171">
        <ele>677</ele>
        <time>2017-02-24T09:33:21Z</time>
      </trkpt>
      <trkpt lat="48.16346" lon="6.97162">
        <ele>676</ele>
        <time>2017-02-24T09:33:26Z</time>
      </trkpt>
      <trkpt lat="48.1633" lon="6.97152">
        <ele>675</ele>
        <time>2017-02-24T09:33:31Z</time>
      </trkpt>
      <trkpt lat="48.16303" lon="6.97095">
        <ele>675</ele>
        <time>2017-02-24T09:33:36Z</time>
      </trkpt>
      <trkpt lat="48.16283" lon="6.97042">
        <ele>676</ele>
        <time>2017-02-24T09:33:41Z</time>
      </trkpt>
      <trkpt lat="48.16262" lon="6.96986">
        <ele>675</ele>
        <time>2017-02-24T09:33:46Z</time>
      </trkpt>
      <trkpt lat="48.16236" lon="6.96906">
        <ele>678</ele>
        <time>2017-02-24T09:33:51Z</time>
      </trkpt>
      <trkpt lat="48.16208" lon="6.96863">
        <ele>682</ele>
        <time>2017-02-24T09:33:56Z</time>
      </trkpt>
      <trkpt lat="48.16186" lon="6.96837">
        <ele>685</ele>
        <time>2017-02-24T09:34:01Z</time>
      </trkpt>
      <trkpt lat="48.16169" lon="6.96827">
        <ele>686</ele>
        <time>2017-02-24T09:34:06Z</time>
      </trkpt>
      <trkpt lat="48.16156" lon="6.96829">
        <ele>686</ele>
        <time>2017-02-24T09:34:11Z</time>
      </trkpt>
      <trkpt lat="48.16141" lon="6.96829">
        <ele>687</ele>
        <time>2017-02-24T09:34:16Z</time>
      </trkpt>
      <trkpt lat="48.16125" lon="6.9684">
        <ele>687</ele>
        <time>2017-02-24T09:34:21Z</time>
      </trkpt>
      <trkpt lat="48.16114" lon="6.96849">
        <ele>687</ele>
        <time>2017-02-24T09:34:26Z</time>
      </trkpt>
      <trkpt lat="48.16103" lon="6.96857">
        <ele>687</ele>
        <time>2017-02-24T09:34:31Z</time>
      </trkpt>
      <trkpt lat="48.16089" lon="6.96865">
        <ele>687</ele>
        <time>2017-02-24T09:34:36Z</time>
      </trkpt>
      <trkpt lat="48.16081" lon="6.96862">
        <ele>688</ele>
        <time>2017-02-24T09:34:41Z</time>
      </trkpt>
      <trkpt lat="48.16077" lon="6.96854">
        <ele>689</ele>
        <time>2017-02-24T09:34:46Z</time>
      </trkpt>
      <trkpt lat="48.16061" lon="6.96832">
        <ele>691</ele>
        <time>2017-02-24T09:34:51Z</time>
      </trkpt>
      <trkpt lat="48.16051" lon="6.96814">
        <ele>694</ele>
        <time>2017-02-24T09:34:56Z</time>
      </trkpt>
      <trkpt lat="48.16043" lon="6.96811">
        <ele>694</ele>
        <time>2017-02-24T09:35:01Z</time>
      </trkpt>
      <trkpt lat="48.16027" lon="6.96793">
        <ele>697</ele>
        <time>2019-01-24T11:25:39Z</time>
      </trkpt>
      <trkpt lat="48.16012" lon="6.96787">
        <ele>698</ele>
        <time>2019-01-24T11:25:44Z</time>
      </trkpt>
      <trkpt lat="48.15999" lon="6.96759">
        <ele>702</ele>
        <time>2017-02-24T09:35:06Z</time>
      </trkpt>
      <trkpt lat="48.15973" lon="6.96656">
        <ele>706</ele>
        <time>2017-02-24T09:35:11Z</time>
      </trkpt>
      <trkpt lat="48.15959" lon="6.96555">
        <ele>705</ele>
        <time>2017-02-24T09:35:16Z</time>
      </trkpt>
      <trkpt lat="48.15971" lon="6.9649">
        <ele>710</ele>
        <time>2017-02-24T09:35:21Z</time>
      </trkpt>
      <trkpt lat="48.1597" lon="6.9641">
        <ele>716</ele>
        <time>2017-02-24T09:35:26Z</time>
      </trkpt>
      <trkpt lat="48.15933" lon="6.96328">
        <ele>721</ele>
        <time>2017-02-24T09:35:31Z</time>
      </trkpt>
      <trkpt lat="48.15923" lon="6.96305">
        <ele>724</ele>
        <time>2019-01-24T11:26:19Z</time>
      </trkpt>
      <trkpt lat="48.15922" lon="6.96269">
        <ele>732</ele>
        <time>2019-01-24T11:26:24Z</time>
      </trkpt>
      <trkpt lat="48.15913" lon="6.96254">
        <ele>735</ele>
        <time>2017-02-24T09:35:36Z</time>
      </trkpt>
      <trkpt lat="48.15896" lon="6.96249">
        <ele>740</ele>
        <time>2017-02-24T09:35:41Z</time>
      </trkpt>
      <trkpt lat="48.15857" lon="6.96254">
        <ele>747</ele>
        <time>2017-02-24T09:35:46Z</time>
      </trkpt>
      <trkpt lat="48.15811" lon="6.96283">
        <ele>751</ele>
        <time>2017-02-24T09:35:51Z</time>
      </trkpt>
      <trkpt lat="48.1572" lon="6.96327">
        <ele>764</ele>
        <time>2017-02-24T09:35:56Z</time>
      </trkpt>
      <trkpt lat="48.15692" lon="6.96352">
        <ele>763</ele>
        <time>2017-02-24T09:36:01Z</time>
      </trkpt>
      <trkpt lat="48.15662" lon="6.96364">
        <ele>767</ele>
        <time>2017-02-24T09:36:06Z</time>
      </trkpt>
      <trkpt lat="48.15605" lon="6.96385">
        <ele>774</ele>
        <time>2017-02-24T09:36:11Z</time>
      </trkpt>
      <trkpt lat="48.15567" lon="6.96427">
        <ele>773</ele>
        <time>2019-01-24T11:27:09Z</time>
      </trkpt>
      <trkpt lat="48.1548" lon="6.9654">
        <ele>765</ele>
        <time>2017-02-24T09:36:16Z</time>
      </trkpt>
      <trkpt lat="48.15432" lon="6.96586">
        <ele>762</ele>
        <time>2017-02-24T09:36:21Z</time>
      </trkpt>
      <trkpt lat="48.15384" lon="6.96615">
        <ele>768</ele>
        <time>2017-02-24T09:36:26Z</time>
      </trkpt>
      <trkpt lat="48.15354" lon="6.96625">
        <ele>775</ele>
        <time>2017-02-24T09:36:31Z</time>
      </trkpt>
      <trkpt lat="48.1533" lon="6.96646">
        <ele>777</ele>
        <time>2017-02-24T09:36:36Z</time>
      </trkpt>
      <trkpt lat="48.15266" lon="6.96763">
        <ele>770</ele>
        <time>2017-02-24T09:36:41Z</time>
      </trkpt>
      <trkpt lat="48.15264" lon="6.96795">
        <ele>765</ele>
        <time>2017-02-24T09:36:46Z</time>
      </trkpt>
      <trkpt lat="48.15255" lon="6.96832">
        <ele>760</ele>
        <time>2017-02-24T09:36:51Z</time>
      </trkpt>
      <trkpt lat="48.15188" lon="6.96797">
        <ele>773</ele>
        <time>2017-02-24T09:36:56Z</time>
      </trkpt>
      <trkpt lat="48.1515" lon="6.96791">
        <ele>779</ele>
        <time>2017-02-24T09:37:01Z</time>
      </trkpt>
      <trkpt lat="48.15109" lon="6.96791">
        <ele>784</ele>
        <time>2017-02-24T09:37:06Z</time>
      </trkpt>
      <trkpt lat="48.15048" lon="6.96797">
        <ele>782</ele>
        <time>2017-02-24T09:37:11Z</time>
      </trkpt>
      <trkpt lat="48.15009" lon="6.96779">
        <ele>785</ele>
        <time>2017-02-24T09:37:16Z</time>
      </trkpt>
      <trkpt lat="48.1495" lon="6.9671">
        <ele>785</ele>
        <time>2017-02-24T09:37:21Z</time>
      </trkpt>
      <trkpt lat="48.1491" lon="6.96558">
        <ele>800</ele>
        <time>2017-02-24T09:37:26Z</time>
      </trkpt>
      <trkpt lat="48.14869" lon="6.9646">
        <ele>799</ele>
        <time>2017-02-24T09:37:31Z</time>
      </trkpt>
      <trkpt lat="48.14854" lon="6.96436">
        <ele>797</ele>
        <time>2017-02-24T09:37:36Z</time>
      </trkpt>
      <trkpt lat="48.14838" lon="6.96423">
        <ele>794</ele>
        <time>2017-02-24T09:37:41Z</time>
      </trkpt>
      <trkpt lat="48.14821" lon="6.96414">
        <ele>792</ele>
        <time>2017-02-24T09:37:46Z</time>
      </trkpt>
      <trkpt lat="48.14788" lon="6.96401">
        <ele>789</ele>
        <time>2017-02-24T09:37:51Z</time>
      </trkpt>
      <trkpt lat="48.14772" lon="6.96388">
        <ele>790</ele>
        <time>2017-02-24T09:37:56Z</time>
      </trkpt>
      <trkpt lat="48.14717" lon="6.96306">
        <ele>806</ele>
        <time>2017-02-24T09:38:01Z</time>
      </trkpt>
      <trkpt lat="48.14618" lon="6.96232">
        <ele>813</ele>
        <time>2017-02-24T09:38:06Z</time>
      </trkpt>
      <trkpt lat="48.14577" lon="6.96189">
        <ele>816</ele>
        <time>2017-02-24T09:38:11Z</time>
      </trkpt>
      <trkpt lat="48.14559" lon="6.96153">
        <ele>820</ele>
        <time>2017-02-24T09:38:16Z</time>
      </trkpt>
      <trkpt lat="48.14535" lon="6.96072">
        <ele>826</ele>
        <time>2017-02-24T09:38:21Z</time>
      </trkpt>
      <trkpt lat="48.14532" lon="6.95985">
        <ele>830</ele>
        <time>2017-02-24T09:38:26Z</time>
      </trkpt>
      <trkpt lat="48.14534" lon="6.95931">
        <ele>836</ele>
        <time>2017-02-24T09:38:31Z</time>
      </trkpt>
      <trkpt lat="48.14478" lon="6.95763">
        <ele>841</ele>
        <time>2017-02-24T09:38:36Z</time>
      </trkpt>
      <trkpt lat="48.14397" lon="6.95544">
        <ele>854</ele>
        <time>2017-02-24T09:38:41Z</time>
      </trkpt>
      <trkpt lat="48.14362" lon="6.95486">
        <ele>862</ele>
        <time>2017-02-24T09:38:46Z</time>
      </trkpt>
      <trkpt lat="48.14253" lon="6.95468">
        <ele>854</ele>
        <time>2017-02-24T09:38:51Z</time>
      </trkpt>
      <trkpt lat="48.14204" lon="6.95449">
        <ele>851</ele>
        <time>2017-02-24T09:38:56Z</time>
      </trkpt>
      <trkpt lat="48.1418" lon="6.95426">
        <ele>852</ele>
        <time>2019-01-24T11:29:59Z</time>
      </trkpt>
      <trkpt lat="48.14175" lon="6.9541">
        <ele>853</ele>
        <time>2017-02-24T09:39:01Z</time>
      </trkpt>
      <trkpt lat="48.14115" lon="6.9526">
        <ele>846</ele>
        <time>2019-01-24T11:30:09Z</time>
      </trkpt>
      <trkpt lat="48.14049" lon="6.9508">
        <ele>839</ele>
        <time>2017-02-24T09:39:06Z</time>
      </trkpt>
      <trkpt lat="48.14027" lon="6.95071">
        <ele>838</ele>
        <time>2019-01-24T11:30:19Z</time>
      </trkpt>
      <trkpt lat="48.14015" lon="6.95048">
        <ele>839</ele>
        <time>2017-02-24T09:39:11Z</time>
      </trkpt>
      <trkpt lat="48.13978" lon="6.94855">
        <ele>847</ele>
        <time>2017-02-24T09:39:16Z</time>
      </trkpt>
      <trkpt lat="48.1397" lon="6.94845">
        <ele>849</ele>
        <time>2019-01-24T11:30:34Z</time>
      </trkpt>
      <trkpt lat="48.13961" lon="6.9485">
        <ele>852</ele>
        <time>2017-02-24T09:39:21Z</time>
      </trkpt>
      <trkpt lat="48.13957" lon="6.94868">
        <ele>855</ele>
        <time>2019-01-24T11:30:44Z</time>
      </trkpt>
      <trkpt lat="48.13974" lon="6.9494">
        <ele>853</ele>
        <time>2017-02-24T09:39:26Z</time>
      </trkpt>
      <trkpt lat="48.13966" lon="6.95031">
        <ele>849</ele>
        <time>2017-02-24T09:39:31Z</time>
      </trkpt>
      <trkpt lat="48.13935" lon="6.95046">
        <ele>852</ele>
        <time>2019-01-24T11:30:59Z</time>
      </trkpt>
      <trkpt lat="48.13892" lon="6.95047">
        <ele>857</ele>
        <time>2017-02-24T09:39:36Z</time>
      </trkpt>
      <trkpt lat="48.1385" lon="6.95023">
        <ele>871</ele>
        <time>2017-02-24T09:39:41Z</time>
      </trkpt>
      <trkpt lat="48.13815" lon="6.95042">
        <ele>863</ele>
        <time>2017-02-24T09:39:46Z</time>
      </trkpt>
      <trkpt lat="48.13696" lon="6.95012">
        <ele>861</ele>
        <time>2017-02-24T09:39:51Z</time>
      </trkpt>
      <trkpt lat="48.13646" lon="6.94958">
        <ele>862</ele>
        <time>2017-02-24T09:39:56Z</time>
      </trkpt>
      <trkpt lat="48.1361" lon="6.94872">
        <ele>864</ele>
        <time>2019-01-24T11:31:29Z</time>
      </trkpt>
      <trkpt lat="48.13564" lon="6.94797">
        <ele>859</ele>
        <time>2017-02-24T09:40:01Z</time>
      </trkpt>
      <trkpt lat="48.13499" lon="6.94738">
        <ele>853</ele>
        <time>2017-02-24T09:40:06Z</time>
      </trkpt>
      <trkpt lat="48.13425" lon="6.94681">
        <ele>853</ele>
        <time>2017-02-24T09:40:11Z</time>
      </trkpt>
      <trkpt lat="48.13383" lon="6.94662">
        <ele>852</ele>
        <time>2019-01-24T11:31:49Z</time>
      </trkpt>
      <trkpt lat="48.13346" lon="6.94619">
        <ele>852</ele>
        <time>2017-02-24T09:40:16Z</time>
      </trkpt>
      <trkpt lat="48.13318" lon="6.94594">
        <ele>854</ele>
        <time>2017-02-24T09:40:21Z</time>
      </trkpt>
      <trkpt lat="48.13309" lon="6.94593">
        <ele>855</ele>
        <time>2019-01-24T11:32:04Z</time>
      </trkpt>
      <trkpt lat="48.13273" lon="6.94525">
        <ele>858</ele>
        <time>2019-01-24T11:32:09Z</time>
      </trkpt>
      <trkpt lat="48.13235" lon="6.9448">
        <ele>859</ele>
        <time>2017-02-24T09:40:26Z</time>
      </trkpt>
      <trkpt lat="48.13134" lon="6.94362">
        <ele>863</ele>
        <time>2017-02-24T09:40:31Z</time>
      </trkpt>
      <trkpt lat="48.13106" lon="6.94369">
        <ele>866</ele>
        <time>2019-01-24T11:32:24Z</time>
      </trkpt>
      <trkpt lat="48.13085" lon="6.94385">
        <ele>867</ele>
        <time>2017-02-24T09:40:36Z</time>
      </trkpt>
      <trkpt lat="48.13061" lon="6.94369">
        <ele>863</ele>
        <time>2017-02-24T09:40:41Z</time>
      </trkpt>
      <trkpt lat="48.13052" lon="6.94322">
        <ele>865</ele>
        <time>2019-01-24T11:32:39Z</time>
      </trkpt>
      <trkpt lat="48.13054" lon="6.94208">
        <ele>880</ele>
        <time>2017-02-24T09:40:46Z</time>
      </trkpt>
      <trkpt lat="48.13075" lon="6.94134">
        <ele>887</ele>
        <time>2017-02-24T09:40:51Z</time>
      </trkpt>
      <trkpt lat="48.13107" lon="6.94079">
        <ele>889</ele>
        <time>2017-02-24T09:40:56Z</time>
      </trkpt>
      <trkpt lat="48.13114" lon="6.94057">
        <ele>890</ele>
        <time>2019-01-24T11:32:59Z</time>
      </trkpt>
      <trkpt lat="48.13109" lon="6.94024">
        <ele>894</ele>
        <time>2017-02-24T09:41:01Z</time>
      </trkpt>
      <trkpt lat="48.13077" lon="6.94004">
        <ele>899</ele>
        <time>2017-02-24T09:41:06Z</time>
      </trkpt>
      <trkpt lat="48.13023" lon="6.93995">
        <ele>902</ele>
        <time>2017-02-24T09:41:11Z</time>
      </trkpt>
      <trkpt lat="48.12876" lon="6.94079">
        <ele>913</ele>
        <time>2017-02-24T09:41:16Z</time>
      </trkpt>
      <trkpt lat="48.12842" lon="6.94077">
        <ele>915</ele>
        <time>2019-01-24T11:33:24Z</time>
      </trkpt>
      <trkpt lat="48.12784" lon="6.94023">
        <ele>918</ele>
        <time>2019-01-24T11:33:29Z</time>
      </trkpt>
      <trkpt lat="48.12721" lon="6.93974">
        <ele>924</ele>
        <time>2017-02-24T09:41:21Z</time>
      </trkpt>
      <trkpt lat="48.12572" lon="6.93957">
        <ele>934</ele>
        <time>2017-02-24T09:41:26Z</time>
      </trkpt>
      <trkpt lat="48.12489" lon="6.93908">
        <ele>947</ele>
        <time>2017-02-24T09:41:31Z</time>
      </trkpt>
      <trkpt lat="48.12446" lon="6.93886">
        <ele>953</ele>
        <time>2017-02-24T09:41:36Z</time>
      </trkpt>
      <trkpt lat="48.12348" lon="6.93889">
        <ele>956</ele>
        <time>2017-02-24T09:41:41Z</time>
      </trkpt>
      <trkpt lat="48.12306" lon="6.93873">
        <ele>962</ele>
        <time>2019-01-24T11:33:59Z</time>
      </trkpt>
      <trkpt lat="48.1225" lon="6.93882">
        <ele>964</ele>
        <time>2017-02-24T09:41:46Z</time>
      </trkpt>
      <trkpt lat="48.12194" lon="6.93908">
        <ele>965</ele>
        <time>2017-02-24T09:41:51Z</time>
      </trkpt>
      <trkpt lat="48.12136" lon="6.93885">
        <ele>967</ele>
        <time>2017-02-24T09:41:56Z</time>
      </trkpt>
      <trkpt lat="48.12041" lon="6.93779">
        <ele>966</ele>
        <time>2017-02-24T09:42:01Z</time>
      </trkpt>
      <trkpt lat="48.11992" lon="6.93656">
        <ele>972</ele>
        <time>2017-02-24T09:42:06Z</time>
      </trkpt>
      <trkpt lat="48.11957" lon="6.93626">
        <ele>973</ele>
        <time>2017-02-24T09:42:11Z</time>
      </trkpt>
      <trkpt lat="48.11989" lon="6.93499">
        <ele>971</ele>
        <time>2017-02-24T09:42:16Z</time>
      </trkpt>
      <trkpt lat="48.11994" lon="6.93477">
        <ele>971</ele>
        <time>2017-02-24T09:42:21Z</time>
      </trkpt>
      <trkpt lat="48.12045" lon="6.93275">
        <ele>966</ele>
        <time>2019-01-24T11:34:44Z</time>
      </trkpt>
      <trkpt lat="48.12097" lon="6.93062">
        <ele>953</ele>
        <time>2017-02-24T09:42:26Z</time>
      </trkpt>
      <trkpt lat="48.12098" lon="6.93106">
        <ele>955</ele>
        <time>2019-01-24T11:34:54Z</time>
      </trkpt>
      <trkpt lat="48.12108" lon="6.93147">
        <ele>955</ele>
        <time>2017-02-24T09:42:31Z</time>
      </trkpt>
      <trkpt lat="48.12191" lon="6.93224">
        <ele>952</ele>
        <time>2017-02-24T09:42:36Z</time>
      </trkpt>
      <trkpt lat="48.12235" lon="6.93217">
        <ele>951</ele>
        <time>2019-01-24T11:35:09Z</time>
      </trkpt>
      <trkpt lat="48.12274" lon="6.93222">
        <ele>952</ele>
        <time>2017-02-24T09:42:41Z</time>
      </trkpt>
      <trkpt lat="48.12308" lon="6.93226">
        <ele>954</ele>
        <time>2019-01-24T11:35:19Z</time>
      </trkpt>
      <trkpt lat="48.12366" lon="6.93214">
        <ele>955</ele>
        <time>2019-01-24T11:35:24Z</time>
      </trkpt>
      <trkpt lat="48.12444" lon="6.93214">
        <ele>957</ele>
        <time>2017-02-24T09:42:46Z</time>
      </trkpt>
      <trkpt lat="48.12513" lon="6.93214">
        <ele>955</ele>
        <time>2019-01-24T11:35:34Z</time>
      </trkpt>
      <trkpt lat="48.12578" lon="6.93227">
        <ele>952</ele>
        <time>2017-02-24T09:42:51Z</time>
      </trkpt>
      <trkpt lat="48.12602" lon="6.93239">
        <ele>951</ele>
        <time>2019-01-24T11:35:44Z</time>
      </trkpt>
      <trkpt lat="48.12618" lon="6.93256">
        <ele>952</ele>
        <time>2017-02-24T09:42:56Z</time>
      </trkpt>
      <trkpt lat="48.12632" lon="6.93292">
        <ele>952</ele>
        <time>2017-02-24T09:43:01Z</time>
      </trkpt>
      <trkpt lat="48.12644" lon="6.93331">
        <ele>951</ele>
        <time>2019-01-24T11:35:59Z</time>
      </trkpt>
      <trkpt lat="48.12647" lon="6.93374">
        <ele>950</ele>
        <time>2017-02-24T09:43:06Z</time>
      </trkpt>
      <trkpt lat="48.12646" lon="6.93432">
        <ele>950</ele>
        <time>2019-01-24T11:36:09Z</time>
      </trkpt>
      <trkpt lat="48.12644" lon="6.93498">
        <ele>950</ele>
        <time>2017-02-24T09:43:11Z</time>
      </trkpt>
      <trkpt lat="48.12629" lon="6.936">
        <ele>949</ele>
        <time>2017-02-24T09:43:16Z</time>
      </trkpt>
      <trkpt lat="48.12665" lon="6.93726">
        <ele>936</ele>
        <time>2019-01-24T11:36:24Z</time>
      </trkpt>
      <trkpt lat="48.12704" lon="6.93852">
        <ele>926</ele>
        <time>2017-02-24T09:43:21Z</time>
      </trkpt>
      <trkpt lat="48.12771" lon="6.93897">
        <ele>917</ele>
        <time>2017-02-24T09:43:26Z</time>
      </trkpt>
      <trkpt lat="48.12844" lon="6.93868">
        <ele>906</ele>
        <time>2017-02-24T09:43:31Z</time>
      </trkpt>
      <trkpt lat="48.12878" lon="6.93857">
        <ele>902</ele>
        <time>2017-02-24T09:43:36Z</time>
      </trkpt>
      <trkpt lat="48.12908" lon="6.93853">
        <ele>899</ele>
        <time>2017-02-24T09:43:41Z</time>
      </trkpt>
      <trkpt lat="48.12938" lon="6.93838">
        <ele>897</ele>
        <time>2017-02-24T09:43:46Z</time>
      </trkpt>
      <trkpt lat="48.12968" lon="6.93831">
        <ele>895</ele>
        <time>2017-02-24T09:43:51Z</time>
      </trkpt>
      <trkpt lat="48.12978" lon="6.93816">
        <ele>894</ele>
        <time>2017-02-24T09:43:56Z</time>
      </trkpt>
      <trkpt lat="48.13003" lon="6.93804">
        <ele>892</ele>
        <time>2017-02-24T09:44:01Z</time>
      </trkpt>
      <trkpt lat="48.13111" lon="6.93737">
        <ele>882</ele>
        <time>2019-01-24T11:37:14Z</time>
      </trkpt>
      <trkpt lat="48.13173" lon="6.93691">
        <ele>878</ele>
        <time>2019-01-24T11:37:19Z</time>
      </trkpt>
      <trkpt lat="48.1324" lon="6.93668">
        <ele>875</ele>
        <time>2017-02-24T09:44:06Z</time>
      </trkpt>
      <trkpt lat="48.13303" lon="6.93649">
        <ele>870</ele>
        <time>2017-02-24T09:44:11Z</time>
      </trkpt>
      <trkpt lat="48.13366" lon="6.93662">
        <ele>868</ele>
        <time>2017-02-24T09:44:16Z</time>
      </trkpt>
      <trkpt lat="48.13384" lon="6.93693">
        <ele>868</ele>
        <time>2017-02-24T09:44:21Z</time>
      </trkpt>
      <trkpt lat="48.1341" lon="6.93706">
        <ele>866</ele>
        <time>2017-02-24T09:44:26Z</time>
      </trkpt>
      <trkpt lat="48.13442" lon="6.93712">
        <ele>863</ele>
        <time>2019-01-24T11:37:49Z</time>
      </trkpt>
      <trkpt lat="48.13476" lon="6.93706">
        <ele>859</ele>
        <time>2017-02-24T09:44:31Z</time>
      </trkpt>
      <trkpt lat="48.13546" lon="6.93701">
        <ele>849</ele>
        <time>2019-01-24T11:37:59Z</time>
      </trkpt>
      <trkpt lat="48.13623" lon="6.93705">
        <ele>838</ele>
        <time>2017-02-24T09:44:36Z</time>
      </trkpt>
      <trkpt lat="48.13681" lon="6.93721">
        <ele>829</ele>
        <time>2019-01-24T11:38:09Z</time>
      </trkpt>
      <trkpt lat="48.13732" lon="6.93743">
        <ele>821</ele>
        <time>2017-02-24T09:44:41Z</time>
      </trkpt>
      <trkpt lat="48.13783" lon="6.93804">
        <ele>802</ele>
        <time>2017-02-24T09:44:46Z</time>
      </trkpt>
      <trkpt lat="48.13807" lon="6.9385">
        <ele>793</ele>
        <time>2017-02-24T09:44:51Z</time>
      </trkpt>
      <trkpt lat="48.13835" lon="6.93858">
        <ele>791</ele>
        <time>2017-02-24T09:44:56Z</time>
      </trkpt>
      <trkpt lat="48.13889" lon="6.93818">
        <ele>787</ele>
        <time>2017-02-24T09:45:01Z</time>
      </trkpt>
      <trkpt lat="48.13891" lon="6.93868">
        <ele>780</ele>
        <time>2017-02-24T09:45:06Z</time>
      </trkpt>
      <trkpt lat="48.13872" lon="6.93962">
        <ele>769</ele>
        <time>2017-02-24T09:45:11Z</time>
      </trkpt>
      <trkpt lat="48.13807" lon="6.93986">
        <ele>774</ele>
        <time>2017-02-24T09:45:16Z</time>
      </trkpt>
      <trkpt lat="48.13788" lon="6.94022">
        <ele>777</ele>
        <time>2017-02-24T09:45:21Z</time>
      </trkpt>
      <trkpt lat="48.13873" lon="6.94099">
        <ele>764</ele>
        <time>2017-02-24T09:45:26Z</time>
      </trkpt>
      <trkpt lat="48.13976" lon="6.94135">
        <ele>747</ele>
        <time>2017-02-24T09:45:31Z</time>
      </trkpt>
      <trkpt lat="48.14051" lon="6.94158">
        <ele>734</ele>
        <time>2017-02-24T09:45:36Z</time>
      </trkpt>
      <trkpt lat="48.14088" lon="6.94185">
        <ele>730</ele>
        <time>2019-01-24T11:39:14Z</time>
      </trkpt>
      <trkpt lat="48.14113" lon="6.94222">
        <ele>728</ele>
        <time>2017-02-24T09:45:41Z</time>
      </trkpt>
      <trkpt lat="48.14135" lon="6.94293">
        <ele>732</ele>
        <time>2017-02-24T09:45:46Z</time>
      </trkpt>
      <trkpt lat="48.14198" lon="6.94174">
        <ele>709</ele>
        <time>2017-02-24T09:45:51Z</time>
      </trkpt>
      <trkpt lat="48.14264" lon="6.94101">
        <ele>704</ele>
        <time>2017-02-24T09:45:56Z</time>
      </trkpt>
      <trkpt lat="48.14393" lon="6.93942">
        <ele>696</ele>
        <time>2017-02-24T09:46:01Z</time>
      </trkpt>
      <trkpt lat="48.14447" lon="6.93796">
        <ele>689</ele>
        <time>2017-02-24T09:46:06Z</time>
      </trkpt>
      <trkpt lat="48.14533" lon="6.9365">
        <ele>683</ele>
        <time>2017-02-24T09:46:11Z</time>
      </trkpt>
      <trkpt lat="48.14613" lon="6.93603">
        <ele>680</ele>
        <time>2017-02-24T09:46:16Z</time>
      </trkpt>
      <trkpt lat="48.14705" lon="6.9347">
        <ele>669</ele>
        <time>2017-02-24T09:46:21Z</time>
      </trkpt>
      <trkpt lat="48.14734" lon="6.93425">
        <ele>668</ele>
        <time>2017-02-24T09:46:26Z</time>
      </trkpt>
      <trkpt lat="48.14778" lon="6.93315">
        <ele>666</ele>
        <time>2019-01-24T11:40:09Z</time>
      </trkpt>
      <trkpt lat="48.14822" lon="6.93219">
        <ele>661</ele>
        <time>2017-02-24T09:46:31Z</time>
      </trkpt>
      <trkpt lat="48.14859" lon="6.93107">
        <ele>656</ele>
        <time>2017-02-24T09:46:36Z</time>
      </trkpt>
      <trkpt lat="48.14887" lon="6.93048">
        <ele>653</ele>
        <time>2019-01-24T11:40:24Z</time>
      </trkpt>
      <trkpt lat="48.14912" lon="6.93021">
        <ele>651</ele>
        <time>2017-02-24T09:46:41Z</time>
      </trkpt>
      <trkpt lat="48.14969" lon="6.9297">
        <ele>650</ele>
        <time>2017-02-24T09:46:46Z</time>
      </trkpt>
      <trkpt lat="48.14995" lon="6.92926">
        <ele>648</ele>
        <time>2017-02-24T09:46:51Z</time>
      </trkpt>
      <trkpt lat="48.14995" lon="6.9287">
        <ele>645</ele>
        <time>2017-02-24T09:46:56Z</time>
      </trkpt>
      <trkpt lat="48.14995" lon="6.92851">
        <ele>644</ele>
        <time>2017-02-24T09:47:01Z</time>
      </trkpt>
      <trkpt lat="48.14967" lon="6.92813">
        <ele>642</ele>
        <time>2017-02-24T09:47:06Z</time>
      </trkpt>
      <trkpt lat="48.14942" lon="6.92782">
        <ele>643</ele>
        <time>2017-02-24T09:47:11Z</time>
      </trkpt>
      <trkpt lat="48.1494" lon="6.92746">
        <ele>643</ele>
        <time>2017-02-24T09:47:16Z</time>
      </trkpt>
      <trkpt lat="48.14944" lon="6.92704">
        <ele>643</ele>
        <time>2019-01-24T11:41:09Z</time>
      </trkpt>
      <trkpt lat="48.14958" lon="6.92662">
        <ele>642</ele>
        <time>2017-02-24T09:47:21Z</time>
      </trkpt>
      <trkpt lat="48.14989" lon="6.92581">
        <ele>639</ele>
        <time>2017-02-24T09:47:26Z</time>
      </trkpt>
      <trkpt lat="48.15" lon="6.92383">
        <ele>638</ele>
        <time>2017-02-24T09:47:31Z</time>
      </trkpt>
      <trkpt lat="48.14979" lon="6.92301">
        <ele>637</ele>
        <time>2017-02-24T09:47:36Z</time>
      </trkpt>
      <trkpt lat="48.1498" lon="6.92249">
        <ele>633</ele>
        <time>2017-02-24T09:47:41Z</time>
      </trkpt>
      <trkpt lat="48.14958" lon="6.92218">
        <ele>634</ele>
        <time>2017-02-24T09:47:46Z</time>
      </trkpt>
    </trkseg>
  </trk>
</gpx>